KHEG

Herlong Recreational Airport

Jacksonville, Florida, USA
METAR KHEG 202355Z AUTO 24003KT 10SM CLR 25/23 A3009 RMK AO2
Observed Flight Rules
Aug-20 @ 23:55 UTC (15 minutes ago) Visual Flight Rules
Wind Visibility Clouds
240° at 3 knots 10 miles
  • Clear skies
Temperatures Readings
Current 25°C / 77°F
Dewpoint 23°C / 73°F
Humidity 89%
Altimeter 30.09" Hg
Pressure 1019 hPa
Elevation 27
METAR KHEG 202355Z AUTO 24003KT 10SM CLR 25/23 A3009 RMK AO2
Observed Flight Rules
Aug-20 @ 23:55 UTC
(15 minutes ago)
VFR
Wind Visibility
240° at 3 knots 10 miles
Clouds
  • Clear skies
Temperature Dewpoint
25°C / 77°F 23°C / 73°F
Humidity Altimeter Pressure
89% 30.09" Hg 1019 hPa